createdAt,value
2023-01-26T00:00:57.882Z,7.40
2023-01-26T00:03:55.381Z,8.20
2023-01-26T00:06:53.673Z,9.40
2023-01-26T00:09:51.399Z,9.80
2023-01-26T00:12:48.897Z,8.30
2023-01-26T00:15:46.631Z,7.70
2023-01-26T00:18:44.167Z,7.20
2023-01-26T00:21:41.795Z,7.00
2023-01-26T00:24:39.500Z,7.20
2023-01-26T00:27:36.920Z,6.90
2023-01-26T00:30:34.642Z,7.00
2023-01-26T00:33:32.192Z,7.20
2023-01-26T00:36:30.432Z,7.30
2023-01-26T00:39:27.885Z,7.50
2023-01-26T00:42:25.583Z,7.20
2023-01-26T00:45:23.019Z,7.30
2023-01-26T00:48:22.924Z,6.80
2023-01-26T00:51:22.169Z,7.20
2023-01-26T00:54:19.614Z,7.30
2023-01-26T00:57:17.391Z,6.00
2023-01-26T01:00:16.848Z,6.10
2023-01-26T01:03:14.567Z,6.20
2023-01-26T01:06:12.016Z,5.80
2023-01-26T01:09:09.839Z,6.30
2023-01-26T01:12:07.444Z,5.90
2023-01-26T01:15:05.220Z,6.10
2023-01-26T01:18:02.909Z,5.10
2023-01-26T01:21:00.325Z,5.70
2023-01-26T01:23:58.132Z,6.70
2023-01-26T01:26:55.576Z,6.60
2023-01-26T01:29:53.354Z,6.90
2023-01-26T01:32:52.359Z,6.20
2023-01-26T01:35:50.057Z,6.40
2023-01-26T01:38:47.508Z,8.80
2023-01-26T01:41:45.246Z,9.90
2023-01-26T01:44:42.680Z,8.90
2023-01-26T01:47:40.344Z,8.30
2023-01-26T01:50:38.008Z,8.10
2023-01-26T01:53:35.429Z,8.60
2023-01-26T01:56:33.240Z,8.50
2023-01-26T01:59:30.676Z,9.60
2023-01-26T02:02:28.389Z,9.00
2023-01-26T02:05:25.799Z,7.20
2023-01-26T02:08:23.495Z,5.40
2023-01-26T02:11:20.924Z,6.40
2023-01-26T02:14:18.641Z,7.10
2023-01-26T02:17:16.384Z,6.40
2023-01-26T02:20:13.997Z,6.80
2023-01-26T02:23:11.689Z,7.20
2023-01-26T02:26:09.099Z,6.60
2023-01-26T02:29:06.873Z,8.20
2023-01-26T02:32:04.329Z,8.90
2023-01-26T02:35:02.046Z,8.30
2023-01-26T02:37:59.521Z,8.70
2023-01-26T02:40:57.316Z,8.50
2023-01-26T02:43:55.051Z,9.00
2023-01-26T02:46:52.475Z,7.60
2023-01-26T02:49:50.959Z,7.00
2023-01-26T02:52:48.426Z,8.00
2023-01-26T02:55:46.148Z,8.90
2023-01-26T02:58:43.569Z,8.60
2023-01-26T03:01:41.275Z,8.30
2023-01-26T03:04:39.035Z,9.00
2023-01-26T03:07:36.482Z,6.70
2023-01-26T03:10:34.206Z,6.40
2023-01-26T03:13:31.672Z,7.00
2023-01-26T03:16:29.504Z,7.40
2023-01-26T03:19:44.584Z,8.00
2023-01-26T03:23:08.206Z,8.10
2023-01-26T03:26:23.007Z,8.10
2023-01-26T03:29:20.410Z,11.30
2023-01-26T03:32:18.008Z,11.50
2023-01-26T03:35:16.233Z,10.50
2023-01-26T03:38:13.962Z,11.20
2023-01-26T03:41:29.440Z,11.10
2023-01-26T03:44:44.521Z,9.80
2023-01-26T03:48:00.103Z,8.80
2023-01-26T03:51:15.428Z,7.80
2023-01-26T03:54:30.904Z,7.00
2023-01-26T03:57:28.327Z,8.00
2023-01-26T04:00:26.126Z,7.80
2023-01-26T04:03:41.779Z,8.30
2023-01-26T04:06:57.044Z,8.30
2023-01-26T04:09:54.742Z,9.00
2023-01-26T04:13:09.781Z,9.50
2023-01-26T04:16:25.127Z,11.20
2023-01-26T04:19:40.743Z,10.30
2023-01-26T04:22:43.594Z,9.30
2023-01-26T04:25:41.295Z,8.00
2023-01-26T04:28:38.744Z,9.10
2023-01-26T04:31:36.541Z,7.90
2023-01-26T04:34:33.993Z,8.00
2023-01-26T04:37:31.617Z,9.10
2023-01-26T04:40:29.263Z,8.90
2023-01-26T04:43:26.744Z,9.40
2023-01-26T04:46:24.408Z,9.40
2023-01-26T04:49:21.833Z,7.40
2023-01-26T04:52:19.433Z,6.50
2023-01-26T04:55:16.876Z,6.80
2023-01-26T04:58:14.600Z,7.00
2023-01-26T05:01:12.124Z,7.40
2023-01-26T05:04:09.949Z,8.40
2023-01-26T05:07:07.583Z,8.30
2023-01-26T05:10:05.020Z,7.40
2023-01-26T05:13:02.706Z,9.30
2023-01-26T05:16:00.153Z,10.00
2023-01-26T05:18:57.944Z,10.40
2023-01-26T05:21:55.400Z,10.40
2023-01-26T05:24:53.179Z,9.90
2023-01-26T05:27:50.924Z,9.20
2023-01-26T05:30:48.391Z,10.70
2023-01-26T05:33:46.166Z,9.60
2023-01-26T05:36:43.617Z,10.10
2023-01-26T05:39:41.410Z,7.90
2023-01-26T05:42:38.849Z,6.70
2023-01-26T05:45:36.597Z,8.80
2023-01-26T05:48:34.377Z,9.20
2023-01-26T05:51:32.116Z,8.90
2023-01-26T05:54:29.808Z,8.10
2023-01-26T05:57:27.244Z,8.80
2023-01-26T06:00:25.038Z,8.60
2023-01-26T06:03:22.692Z,8.30
2023-01-26T06:06:20.129Z,10.10
2023-01-26T06:09:17.825Z,9.60
2023-01-26T06:12:15.356Z,9.70
2023-01-26T06:15:13.900Z,9.50
2023-01-26T06:18:11.661Z,8.30
2023-01-26T06:21:09.399Z,9.10
2023-01-26T06:24:07.182Z,9.70
2023-01-26T06:27:07.002Z,9.30
2023-01-26T06:30:05.894Z,9.10
2023-01-26T06:33:03.341Z,9.80
2023-01-26T06:36:01.070Z,10.30
2023-01-26T06:39:00.789Z,11.20
2023-01-26T06:41:58.532Z,10.40
2023-01-26T06:44:57.677Z,10.10
2023-01-26T06:47:55.135Z,10.60
2023-01-26T06:50:52.931Z,11.50
2023-01-26T06:53:50.363Z,13.40
2023-01-26T06:56:48.135Z,13.80
2023-01-26T06:59:45.910Z,17.20
2023-01-26T07:02:43.370Z,27.70
2023-01-26T07:05:41.136Z,16.00
2023-01-26T07:08:38.566Z,15.00
2023-01-26T07:11:36.350Z,13.40
2023-01-26T07:14:33.789Z,12.30
2023-01-26T07:17:31.593Z,11.90
2023-01-26T07:20:29.368Z,10.10
2023-01-26T07:23:26.810Z,9.80
2023-01-26T07:26:24.580Z,11.60
2023-01-26T07:29:22.020Z,12.70
2023-01-26T07:32:19.721Z,13.50
2023-01-26T07:35:17.568Z,11.70
2023-01-26T07:38:14.988Z,10.70
2023-01-26T07:41:12.690Z,14.20
2023-01-26T07:44:10.253Z,11.80
2023-01-26T07:47:08.131Z,13.70
2023-01-26T07:50:07.365Z,13.60
2023-01-26T07:53:04.979Z,13.40
2023-01-26T07:56:03.814Z,15.10
2023-01-26T07:59:03.757Z,14.50
2023-01-26T08:02:01.741Z,13.50
2023-01-26T08:05:00.195Z,12.60
2023-01-26T08:07:57.954Z,9.80
2023-01-26T08:10:55.385Z,10.10
2023-01-26T08:13:53.053Z,11.90
2023-01-26T08:16:50.534Z,11.70
2023-01-26T08:19:48.294Z,12.00
2023-01-26T08:22:45.902Z,12.60
2023-01-26T08:25:43.379Z,10.40
2023-01-26T08:28:41.763Z,13.20
2023-01-26T08:31:39.234Z,14.30
2023-01-26T08:34:37.001Z,14.20
2023-01-26T08:37:34.468Z,13.40
2023-01-26T08:40:32.893Z,14.10
2023-01-26T08:43:30.352Z,12.70
2023-01-26T08:46:28.079Z,13.40
2023-01-26T08:49:25.765Z,12.30
2023-01-26T08:52:23.190Z,12.40
2023-01-26T08:55:20.878Z,12.00
2023-01-26T08:58:18.315Z,15.40
2023-01-26T09:01:16.907Z,14.10
2023-01-26T09:04:14.385Z,15.30
2023-01-26T09:07:13.482Z,13.20
2023-01-26T09:10:11.466Z,16.60
2023-01-26T09:13:09.291Z,14.10
2023-01-26T09:16:06.983Z,14.80
2023-01-26T09:19:05.302Z,14.10
2023-01-26T09:22:03.011Z,13.00
2023-01-26T09:25:00.462Z,13.30
2023-01-26T09:27:58.276Z,12.20
2023-01-26T09:30:55.813Z,12.80
2023-01-26T09:33:53.810Z,10.60
2023-01-26T09:36:51.265Z,10.10
2023-01-26T09:39:48.967Z,10.70
2023-01-26T09:42:46.689Z,13.60
2023-01-26T09:48:39.469Z,12.60
2023-01-26T09:51:36.936Z,16.50
2023-01-26T09:54:34.670Z,13.30
2023-01-26T09:57:32.110Z,12.00
2023-01-26T10:00:30.742Z,13.80
2023-01-26T10:03:28.535Z,13.70
2023-01-26T10:06:28.235Z,14.00
2023-01-26T10:09:25.727Z,13.90
2023-01-26T10:12:23.555Z,14.60
2023-01-26T10:15:21.303Z,14.20
2023-01-26T10:18:19.139Z,14.50
2023-01-26T10:21:16.751Z,12.30
2023-01-26T10:24:14.549Z,12.50
2023-01-26T10:27:12.011Z,11.50
2023-01-26T10:30:10.965Z,12.90
2023-01-26T10:33:08.427Z,15.80
2023-01-26T10:36:06.411Z,13.70
2023-01-26T10:39:03.862Z,15.50
2023-01-26T10:42:01.628Z,13.10
2023-01-26T10:45:00.320Z,14.10
2023-01-26T10:47:58.157Z,16.70
2023-01-26T10:50:55.945Z,16.90
2023-01-26T10:53:53.394Z,15.30
2023-01-26T10:56:51.382Z,14.60
2023-01-26T10:59:48.828Z,13.50
2023-01-26T11:02:46.605Z,16.90
2023-01-26T11:05:45.404Z,10.30
2023-01-26T11:08:42.860Z,11.50
2023-01-26T11:11:40.615Z,12.50
2023-01-26T11:14:38.044Z,12.60
2023-01-26T11:17:35.650Z,13.90
2023-01-26T11:20:33.088Z,13.00
2023-01-26T11:23:30.840Z,12.80
2023-01-26T11:26:28.850Z,13.10
2023-01-26T11:29:26.309Z,12.20
2023-01-26T11:32:24.124Z,14.30
2023-01-26T11:35:21.589Z,13.70
2023-01-26T11:38:19.273Z,12.20
2023-01-26T11:41:16.738Z,13.20
2023-01-26T11:44:14.565Z,12.30
2023-01-26T11:47:12.333Z,10.80
2023-01-26T11:50:09.792Z,12.60
2023-01-26T11:53:07.501Z,11.30
2023-01-26T11:56:04.939Z,12.10
2023-01-26T11:59:02.842Z,13.80
2023-01-26T12:02:00.365Z,13.70
2023-01-26T12:04:59.168Z,13.60
2023-01-26T12:07:57.335Z,11.60
2023-01-26T12:10:54.776Z,12.40
2023-01-26T12:13:52.628Z,13.60
2023-01-26T12:16:50.276Z,14.10
2023-01-26T12:19:47.968Z,12.00
2023-01-26T12:22:45.435Z,11.90
2023-01-26T12:25:43.176Z,12.50
2023-01-26T12:28:40.676Z,11.50
2023-01-26T12:31:38.586Z,12.90
2023-01-26T12:34:36.585Z,12.40
2023-01-26T12:37:34.019Z,12.40
2023-01-26T12:40:31.792Z,11.90
2023-01-26T12:43:29.246Z,12.10
2023-01-26T12:46:27.041Z,12.20
2023-01-26T12:49:24.537Z,12.30
2023-01-26T12:52:22.328Z,11.80
2023-01-26T12:55:19.793Z,11.90
2023-01-26T12:58:17.970Z,12.20
2023-01-26T13:01:15.881Z,12.40
2023-01-26T13:04:13.306Z,13.90
2023-01-26T13:07:11.259Z,13.00
2023-01-26T13:10:09.491Z,11.20
2023-01-26T13:13:07.386Z,11.50
2023-01-26T13:16:04.897Z,11.60
2023-01-26T13:19:02.657Z,10.80
2023-01-26T13:22:00.127Z,11.30
2023-01-26T13:24:57.915Z,11.50
2023-01-26T13:27:56.947Z,11.70
2023-01-26T13:30:54.525Z,12.40
2023-01-26T13:33:52.387Z,11.90
2023-01-26T13:36:49.840Z,10.80
2023-01-26T13:39:47.536Z,11.00
2023-01-26T13:42:45.005Z,12.00
2023-01-26T13:45:43.492Z,11.60
2023-01-26T13:48:41.253Z,11.00
2023-01-26T13:51:38.698Z,9.90
2023-01-26T13:54:36.504Z,12.40
2023-01-26T13:57:33.974Z,13.90
2023-01-26T14:00:31.730Z,11.80
2023-01-26T14:03:30.297Z,10.60
2023-01-26T14:06:28.147Z,10.50
2023-01-26T14:09:25.866Z,10.20
2023-01-26T14:12:23.941Z,11.40
2023-01-26T14:15:21.621Z,10.90
2023-01-26T14:18:19.092Z,11.70
2023-01-26T14:21:16.885Z,11.60
2023-01-26T14:24:14.430Z,10.50
2023-01-26T14:27:12.208Z,10.50
2023-01-26T14:30:12.885Z,10.20
2023-01-26T14:33:10.553Z,10.70
2023-01-26T14:36:08.393Z,11.00
2023-01-26T14:39:07.181Z,9.90
2023-01-26T14:42:04.845Z,9.50
2023-01-26T14:45:02.286Z,10.90
2023-01-26T14:48:00.102Z,10.00
2023-01-26T14:50:58.062Z,10.60
2023-01-26T14:53:55.566Z,10.70
2023-01-26T14:56:53.369Z,11.30
2023-01-26T14:59:50.834Z,10.90
2023-01-26T15:02:48.590Z,10.40
2023-01-26T15:05:46.196Z,10.10
2023-01-26T15:08:43.822Z,10.00
2023-01-26T15:11:59.416Z,10.70
2023-01-26T15:14:56.851Z,11.10
2023-01-26T15:17:54.535Z,12.30
2023-01-26T15:20:51.981Z,11.10
2023-01-26T15:23:49.708Z,11.10
2023-01-26T15:26:47.418Z,10.50
2023-01-26T15:29:44.875Z,12.10
2023-01-26T15:32:42.657Z,12.00
2023-01-26T15:35:40.090Z,11.90
2023-01-26T15:38:37.814Z,11.50
2023-01-26T15:41:35.286Z,10.90
2023-01-26T15:44:33.331Z,10.10
2023-01-26T15:47:30.857Z,10.30
2023-01-26T15:50:28.661Z,10.10
2023-01-26T15:53:26.225Z,8.30
2023-01-26T15:56:24.020Z,7.50
2023-01-26T15:59:21.449Z,6.40
2023-01-26T16:02:19.549Z,5.40
2023-01-26T16:05:18.638Z,5.00
2023-01-26T16:08:16.174Z,5.50
2023-01-26T16:11:13.972Z,4.70
2023-01-26T16:14:11.408Z,5.00
2023-01-26T16:17:09.146Z,4.60
2023-01-26T16:20:06.726Z,4.60
2023-01-26T16:23:04.652Z,4.10
2023-01-26T16:26:02.385Z,7.40
2023-01-26T16:29:00.045Z,6.10
2023-01-26T16:31:57.892Z,5.50
2023-01-26T16:34:55.509Z,5.50
2023-01-26T16:37:53.268Z,6.60
2023-01-26T16:40:50.723Z,4.80
2023-01-26T16:43:49.254Z,5.20
2023-01-26T16:46:46.880Z,5.40
2023-01-26T16:49:44.473Z,4.70
2023-01-26T16:52:42.573Z,5.90
2023-01-26T16:55:40.123Z,6.10
2023-01-26T16:58:37.899Z,6.20
2023-01-26T17:01:36.026Z,6.10
2023-01-26T17:04:34.114Z,5.60
2023-01-26T17:07:31.755Z,5.80
2023-01-26T17:10:29.486Z,7.50
2023-01-26T17:13:27.548Z,7.50
2023-01-26T17:16:25.462Z,7.70
2023-01-26T17:19:23.403Z,7.80
2023-01-26T17:22:20.848Z,7.90
2023-01-26T17:25:19.008Z,8.60
2023-01-26T17:28:16.957Z,8.50
2023-01-26T17:31:18.147Z,8.30
2023-01-26T17:34:17.194Z,9.10
2023-01-26T17:37:14.814Z,8.70
2023-01-26T17:40:13.310Z,8.80
2023-01-26T17:43:11.063Z,8.60
2023-01-26T17:46:08.805Z,8.60
2023-01-26T17:49:07.281Z,9.80
2023-01-26T17:52:05.371Z,9.60
2023-01-26T17:55:05.319Z,9.30
2023-01-26T17:58:03.031Z,9.10
2023-01-26T18:01:01.978Z,9.60
2023-01-26T18:03:59.853Z,8.60
2023-01-26T18:06:58.745Z,8.90
2023-01-26T18:09:56.711Z,8.50
2023-01-26T18:12:54.453Z,8.70
2023-01-26T18:15:55.624Z,8.40
2023-01-26T18:18:54.950Z,10.00
2023-01-26T18:21:52.490Z,8.70
2023-01-26T18:24:51.683Z,8.70
2023-01-26T18:27:50.619Z,8.60
2023-01-26T18:30:50.160Z,8.70
2023-01-26T18:33:48.619Z,8.90
2023-01-26T18:36:47.466Z,8.70
2023-01-26T18:39:45.457Z,9.10
2023-01-26T18:42:42.915Z,7.90
2023-01-26T18:45:40.984Z,9.70
2023-01-26T18:48:39.113Z,9.00
2023-01-26T18:51:37.433Z,9.60
2023-01-26T18:54:35.806Z,9.00
2023-01-26T18:57:34.087Z,9.50
2023-01-26T19:00:36.770Z,9.00
2023-01-26T19:03:34.450Z,9.10
2023-01-26T19:06:34.732Z,10.30
2023-01-26T19:09:33.955Z,8.80
2023-01-26T19:12:32.566Z,8.40
2023-01-26T19:15:31.697Z,8.10
2023-01-26T19:18:38.115Z,8.50
2023-01-26T19:21:36.674Z,7.60
2023-01-26T19:24:35.292Z,8.20
2023-01-26T19:27:33.446Z,8.20
2023-01-26T19:30:33.219Z,7.60
2023-01-26T19:33:32.501Z,7.00
2023-01-26T19:36:31.806Z,8.60
2023-01-26T19:39:31.906Z,7.20
2023-01-26T19:42:30.697Z,7.10
2023-01-26T19:45:28.779Z,7.00
2023-01-26T19:48:28.177Z,7.30
2023-01-26T19:51:26.543Z,7.40
2023-01-26T19:54:25.153Z,6.30
2023-01-26T19:57:24.058Z,6.80
2023-01-26T20:00:24.577Z,7.10
2023-01-26T20:03:25.140Z,6.20
2023-01-26T20:06:23.903Z,7.80
2023-01-26T20:09:24.018Z,8.70
2023-01-26T20:12:22.708Z,8.00
2023-01-26T20:15:21.524Z,8.30
2023-01-26T20:18:20.488Z,7.30
2023-01-26T20:21:18.959Z,6.70
2023-01-26T20:24:18.892Z,8.00
2023-01-26T20:27:17.187Z,8.00
2023-01-26T20:30:16.259Z,7.60
2023-01-26T20:33:14.346Z,7.80
2023-01-26T20:36:12.777Z,7.70
2023-01-26T20:39:11.434Z,8.20
2023-01-26T20:42:11.024Z,8.90
2023-01-26T20:45:10.760Z,8.50
2023-01-26T20:48:09.169Z,9.40
2023-01-26T20:51:14.974Z,8.50
2023-01-26T20:54:13.609Z,9.30
2023-01-26T20:57:11.036Z,10.00
2023-01-26T21:00:10.234Z,8.90
2023-01-26T21:03:07.906Z,9.20
2023-01-26T21:06:06.142Z,9.40
2023-01-26T21:09:04.174Z,10.80
2023-01-26T21:12:01.857Z,10.80
2023-01-26T21:15:00.099Z,10.60
2023-01-26T21:17:57.529Z,10.80
2023-01-26T21:20:57.174Z,9.80
2023-01-26T21:23:55.794Z,9.90
2023-01-26T21:26:53.846Z,9.50
2023-01-26T21:29:51.774Z,10.20
2023-01-26T21:32:49.504Z,10.60
2023-01-26T21:35:47.205Z,10.00
2023-01-26T21:38:44.654Z,10.30
2023-01-26T21:41:57.469Z,11.10
2023-01-26T21:45:14.784Z,10.30
2023-01-26T21:48:32.470Z,9.40
2023-01-26T21:51:47.815Z,9.70
2023-01-26T21:54:45.734Z,9.80
2023-01-26T21:58:01.376Z,9.80
2023-01-26T22:00:58.851Z,10.30
2023-01-26T22:03:56.931Z,9.40
2023-01-26T22:06:54.673Z,9.90
2023-01-26T22:09:52.099Z,10.20
2023-01-26T22:12:49.805Z,10.00
2023-01-26T22:15:47.569Z,10.20
2023-01-26T22:18:46.067Z,9.20
2023-01-26T22:21:43.736Z,9.60
2023-01-26T22:24:41.403Z,8.90
2023-01-26T22:27:39.167Z,10.00
2023-01-26T22:30:36.607Z,9.10
2023-01-26T22:33:34.400Z,8.80
2023-01-26T22:36:31.860Z,9.00
2023-01-26T22:39:29.568Z,9.00
2023-01-26T22:42:27.012Z,9.90
2023-01-26T22:45:24.702Z,9.20
2023-01-26T22:48:22.124Z,9.10
2023-01-26T22:51:19.767Z,8.60
2023-01-26T22:54:17.415Z,8.10
2023-01-26T22:57:14.847Z,7.30
2023-01-26T23:03:30.827Z,7.80
2023-01-26T23:06:28.579Z,6.80
2023-01-26T23:09:26.325Z,6.90
2023-01-26T23:12:23.757Z,7.30
2023-01-26T23:15:21.393Z,6.30
2023-01-26T23:18:18.824Z,5.40
2023-01-26T23:21:16.582Z,5.60
2023-01-26T23:24:14.431Z,5.50
2023-01-26T23:27:11.895Z,5.50
2023-01-26T23:30:09.608Z,4.60
2023-01-26T23:33:07.056Z,5.10
2023-01-26T23:36:04.790Z,5.10
2023-01-26T23:39:02.227Z,4.90
2023-01-26T23:41:59.924Z,4.40
2023-01-26T23:44:57.364Z,5.00
2023-01-26T23:47:54.956Z,5.00
2023-01-26T23:50:52.412Z,4.80
2023-01-26T23:53:50.170Z,5.10
2023-01-26T23:56:47.826Z,5.10
2023-01-26T23:59:45.245Z,4.50
